Terminal Aerodrome Forecast
Issued by NWS

Home | Current Version | Previous Version | Text Only | Print | Product List | Glossary On
Versions: 1 2 3 4 5 6 7 8 9 10 11 12 13 14 15 16 17 18 19 20 21 22 23 24
615
FTAK31 PAJN 250210 AAB
TAFASI
TAF AMD
PASI 250210Z 2502/2524 12008KT 6SM -SHRA BR BKN035 OVC050
      TEMPO 2502/2504 22015G20KT 4SM BR BKN025 OVC035
     FM250400 13012KT 6SM -SHRA BR BKN020 OVC035
     FM251100 30008KT P6SM VCSH SCT020 OVC030
     FM251500 30006KT P6SM SCT020 BKN045=

USA.gov is the U.S. government's official web portal to all federal, state and local government web resources and services.